sensor_id;sensor_type;location;lat;lon;timestamp;temperature;humidity
8481;DHT22;4277;51.354;6.740;2023-07-13T08:00:35;18.60;99.90
8481;DHT22;4277;51.354;6.740;2023-07-13T08:03:01;18.50;99.90
8481;DHT22;4277;51.354;6.740;2023-07-13T08:05:26;18.70;99.90
8481;DHT22;4277;51.354;6.740;2023-07-13T08:10:18;18.90;99.90
8481;DHT22;4277;51.354;6.740;2023-07-13T08:12:44;18.90;98.60
8481;DHT22;4277;51.354;6.740;2023-07-13T08:15:11;19.10;99.90
8481;DHT22;4277;51.354;6.740;2023-07-13T08:17:38;19.20;98.10
8481;DHT22;4277;51.354;6.740;2023-07-13T08:20:03;19.30;95.50
8481;DHT22;4277;51.354;6.740;2023-07-13T08:22:29;19.30;95.30
8481;DHT22;4277;51.354;6.740;2023-07-13T08:24:55;19.40;93.40
8481;DHT22;4277;51.354;6.740;2023-07-13T08:27:22;19.40;94.10
8481;DHT22;4277;51.354;6.740;2023-07-13T08:29:48;19.40;94.90
8481;DHT22;4277;51.354;6.740;2023-07-13T08:32:14;19.40;94.50
8481;DHT22;4277;51.354;6.740;2023-07-13T08:34:40;19.40;95.80
8481;DHT22;4277;51.354;6.740;2023-07-13T08:37:06;19.40;94.20
8481;DHT22;4277;51.354;6.740;2023-07-13T08:39:32;19.30;94.80
8481;DHT22;4277;51.354;6.740;2023-07-13T08:42:32;19.40;94.30
8481;DHT22;4277;51.354;6.740;2023-07-13T08:47:28;19.40;97.50
8481;DHT22;4277;51.354;6.740;2023-07-13T08:49:54;19.50;96.70
8481;DHT22;4277;51.354;6.740;2023-07-13T08:52:38;19.40;96.20
8481;DHT22;4277;51.354;6.740;2023-07-13T08:55:21;19.50;93.50
8481;DHT22;4277;51.354;6.740;2023-07-13T08:57:54;19.60;93.20
8481;DHT22;4277;51.354;6.740;2023-07-13T09:00:23;19.70;94.80
8481;DHT22;4277;51.354;6.740;2023-07-13T09:05:31;19.70;93.40
8481;DHT22;4277;51.354;6.740;2023-07-13T09:08:12;19.80;94.00
8481;DHT22;4277;51.354;6.740;2023-07-13T09:13:49;19.90;92.80
8481;DHT22;4277;51.354;6.740;2023-07-13T09:16:15;19.90;93.50
8481;DHT22;4277;51.354;6.740;2023-07-13T09:18:47;20.00;92.80
8481;DHT22;4277;51.354;6.740;2023-07-13T09:21:20;19.90;91.90
8481;DHT22;4277;51.354;6.740;2023-07-13T09:23:47;19.90;92.70
8481;DHT22;4277;51.354;6.740;2023-07-13T09:26:22;19.90;91.50
8481;DHT22;4277;51.354;6.740;2023-07-13T09:28:55;20.00;91.10
8481;DHT22;4277;51.354;6.740;2023-07-13T09:31:42;20.00;92.30
8481;DHT22;4277;51.354;6.740;2023-07-13T09:34:10;20.00;92.20
8481;DHT22;4277;51.354;6.740;2023-07-13T09:36:36;20.10;93.10
8481;DHT22;4277;51.354;6.740;2023-07-13T09:39:02;20.00;91.90
8481;DHT22;4277;51.354;6.740;2023-07-13T09:41:49;20.00;93.10
8481;DHT22;4277;51.354;6.740;2023-07-13T09:44:18;20.10;92.40
8481;DHT22;4277;51.354;6.740;2023-07-13T09:46:53;20.40;93.10
8481;DHT22;4277;51.354;6.740;2023-07-13T09:49:24;20.50;90.80
8481;DHT22;4277;51.354;6.740;2023-07-13T09:52:01;20.60;85.80
8481;DHT22;4277;51.354;6.740;2023-07-13T09:54:27;20.70;83.50
8481;DHT22;4277;51.354;6.740;2023-07-13T09:57:00;20.70;79.70
8481;DHT22;4277;51.354;6.740;2023-07-13T09:59:40;20.70;81.80
8481;DHT22;4277;51.354;6.740;2023-07-13T10:02:29;20.60;78.20
8481;DHT22;4277;51.354;6.740;2023-07-13T10:05:07;20.50;77.70
8481;DHT22;4277;51.354;6.740;2023-07-13T10:07:40;20.50;82.40
8481;DHT22;4277;51.354;6.740;2023-07-13T10:10:18;20.60;81.70
8481;DHT22;4277;51.354;6.740;2023-07-13T10:12:45;20.60;79.70
8481;DHT22;4277;51.354;6.740;2023-07-13T10:15:17;20.70;79.20
8481;DHT22;4277;51.354;6.740;2023-07-13T10:17:44;20.70;76.10
8481;DHT22;4277;51.354;6.740;2023-07-13T10:20:10;20.80;77.50
8481;DHT22;4277;51.354;6.740;2023-07-13T10:22:56;20.80;76.20
8481;DHT22;4277;51.354;6.740;2023-07-13T16:39:25;20.60;86.70
8481;DHT22;4277;51.354;6.740;2023-07-13T16:41:53;20.70;83.40
8481;DHT22;4277;51.354;6.740;2023-07-13T16:44:20;20.60;84.50
8481;DHT22;4277;51.354;6.740;2023-07-13T16:46:49;20.60;83.90
8481;DHT22;4277;51.354;6.740;2023-07-13T16:49:25;20.70;87.80
8481;DHT22;4277;51.354;6.740;2023-07-13T16:51:52;20.70;84.40
8481;DHT22;4277;51.354;6.740;2023-07-13T16:54:19;20.80;81.80
8481;DHT22;4277;51.354;6.740;2023-07-13T16:56:47;20.80;78.30
8481;DHT22;4277;51.354;6.740;2023-07-13T16:59:17;20.80;81.40
8481;DHT22;4277;51.354;6.740;2023-07-13T17:01:44;20.90;82.00
8481;DHT22;4277;51.354;6.740;2023-07-13T17:04:11;20.90;82.40
8481;DHT22;4277;51.354;6.740;2023-07-13T17:06:37;20.80;77.20
8481;DHT22;4277;51.354;6.740;2023-07-13T17:09:08;20.90;78.60
8481;DHT22;4277;51.354;6.740;2023-07-13T17:11:35;20.80;81.00
8481;DHT22;4277;51.354;6.740;2023-07-13T17:14:00;20.90;76.60
8481;DHT22;4277;51.354;6.740;2023-07-13T17:16:31;21.00;76.30
8481;DHT22;4277;51.354;6.740;2023-07-13T17:18:56;21.00;69.40
8481;DHT22;4277;51.354;6.740;2023-07-13T17:21:24;21.30;75.00
8481;DHT22;4277;51.354;6.740;2023-07-13T17:23:49;21.30;64.00
8481;DHT22;4277;51.354;6.740;2023-07-13T17:26:17;21.70;69.40
8481;DHT22;4277;51.354;6.740;2023-07-13T17:28:43;21.80;57.30
8481;DHT22;4277;51.354;6.740;2023-07-13T17:33:38;22.00;55.30
8481;DHT22;4277;51.354;6.740;2023-07-13T18:47:30;21.80;18.30
8481;DHT22;4277;51.354;6.740;2023-07-13T18:50:00;21.60;19.00
8481;DHT22;4277;51.354;6.740;2023-07-13T18:52:25;21.60;19.60
8481;DHT22;4277;51.354;6.740;2023-07-13T18:54:52;21.50;19.90
8481;DHT22;4277;51.354;6.740;2023-07-13T18:57:18;21.40;24.20
8481;DHT22;4277;51.354;6.740;2023-07-13T18:59:45;21.20;24.90
8481;DHT22;4277;51.354;6.740;2023-07-13T19:02:15;21.20;26.00
8481;DHT22;4277;51.354;6.740;2023-07-13T19:04:41;21.10;28.80
8481;DHT22;4277;51.354;6.740;2023-07-13T19:07:11;21.10;30.90
8481;DHT22;4277;51.354;6.740;2023-07-13T19:09:37;21.00;31.10
8481;DHT22;4277;51.354;6.740;2023-07-13T19:12:16;20.90;35.20
8481;DHT22;4277;51.354;6.740;2023-07-13T19:14:43;20.80;41.20
8481;DHT22;4277;51.354;6.740;2023-07-13T19:17:11;20.80;45.00
8481;DHT22;4277;51.354;6.740;2023-07-13T19:22:02;20.80;42.70
8481;DHT22;4277;51.354;6.740;2023-07-13T19:26:56;20.60;48.90
8481;DHT22;4277;51.354;6.740;2023-07-13T19:29:25;20.40;47.80
8481;DHT22;4277;51.354;6.740;2023-07-13T19:31:51;20.30;52.50
8481;DHT22;4277;51.354;6.740;2023-07-13T19:34:20;20.20;55.50
8481;DHT22;4277;51.354;6.740;2023-07-13T19:36:47;20.20;59.80
8481;DHT22;4277;51.354;6.740;2023-07-13T19:39:34;20.10;61.50
8481;DHT22;4277;51.354;6.740;2023-07-13T19:42:05;20.10;70.50
8481;DHT22;4277;51.354;6.740;2023-07-13T19:49:29;20.00;73.40
8481;DHT22;4277;51.354;6.740;2023-07-13T19:51:54;19.80;78.60
8481;DHT22;4277;51.354;6.740;2023-07-13T19:54:20;19.70;71.00
8481;DHT22;4277;51.354;6.740;2023-07-13T19:56:47;19.70;80.60
8481;DHT22;4277;51.354;6.740;2023-07-13T19:59:30;19.60;81.80
8481;DHT22;4277;51.354;6.740;2023-07-13T20:01:57;19.60;86.20
8481;DHT22;4277;51.354;6.740;2023-07-13T20:04:27;19.50;87.00
8481;DHT22;4277;51.354;6.740;2023-07-13T20:06:53;19.50;89.70
8481;DHT22;4277;51.354;6.740;2023-07-13T20:09:23;19.50;90.90
8481;DHT22;4277;51.354;6.740;2023-07-13T20:11:50;19.40;92.20
8481;DHT22;4277;51.354;6.740;2023-07-13T20:14:18;19.50;92.30
8481;DHT22;4277;51.354;6.740;2023-07-13T20:16:44;19.50;91.40
8481;DHT22;4277;51.354;6.740;2023-07-13T20:19:12;19.50;91.80
8481;DHT22;4277;51.354;6.740;2023-07-13T20:21:38;19.50;93.20
8481;DHT22;4277;51.354;6.740;2023-07-13T20:24:15;19.50;93.70
8481;DHT22;4277;51.354;6.740;2023-07-13T20:26:42;19.50;94.40
8481;DHT22;4277;51.354;6.740;2023-07-13T20:29:08;19.50;95.90
8481;DHT22;4277;51.354;6.740;2023-07-13T20:31:34;19.40;94.40
8481;DHT22;4277;51.354;6.740;2023-07-13T20:34:02;19.30;96.80
8481;DHT22;4277;51.354;6.740;2023-07-13T20:36:28;19.30;95.40
8481;DHT22;4277;51.354;6.740;2023-07-13T20:38:54;19.20;96.00
8481;DHT22;4277;51.354;6.740;2023-07-13T20:48:43;19.10;95.80
